createdAt,value
2023-05-13T00:00:19.597Z,62.36
2023-05-13T00:02:46.373Z,61.75
2023-05-13T00:05:13.008Z,61.10
2023-05-13T00:07:41.515Z,60.57
2023-05-13T00:10:08.575Z,59.15
2023-05-13T00:12:35.098Z,60.75
2023-05-13T00:15:01.650Z,61.99
2023-05-13T00:17:28.210Z,64.61
2023-05-13T00:19:54.792Z,65.93
2023-05-13T00:22:21.377Z,64.77
2023-05-13T00:24:47.963Z,63.38
2023-05-13T00:27:14.485Z,62.14
2023-05-13T00:29:40.995Z,61.14
2023-05-13T00:32:07.691Z,60.35
2023-05-13T00:34:34.984Z,58.55
2023-05-13T00:37:01.523Z,58.21
2023-05-13T00:39:29.333Z,59.91
2023-05-13T00:41:56.282Z,63.16
2023-05-13T00:44:22.827Z,65.30
2023-05-13T00:46:49.930Z,64.53
2023-05-13T00:49:16.510Z,63.54
2023-05-13T00:51:43.284Z,62.65
2023-05-13T00:54:09.816Z,62.18
2023-05-13T00:56:39.067Z,61.82
2023-05-13T00:59:05.683Z,61.32
2023-05-13T01:02:09.453Z,60.78
2023-05-13T01:04:42.112Z,60.62
2023-05-13T01:07:29.629Z,58.61
2023-05-13T01:10:02.474Z,58.22
2023-05-13T01:12:47.091Z,59.38
2023-05-13T01:15:22.158Z,64.33
2023-05-13T01:17:57.408Z,66.66
2023-05-13T01:20:24.835Z,66.17
2023-05-13T01:22:51.387Z,64.47
2023-05-13T01:25:18.387Z,63.95
2023-05-13T01:27:45.288Z,62.79
2023-05-13T01:30:12.904Z,62.17
2023-05-13T01:32:40.271Z,61.69
2023-05-13T01:35:09.486Z,61.74
2023-05-13T01:37:38.903Z,61.21
2023-05-13T01:40:17.195Z,61.07
2023-05-13T01:42:51.464Z,61.30
2023-05-13T01:45:18.331Z,61.11
2023-05-13T01:47:45.044Z,60.32
2023-05-13T01:50:11.823Z,60.27
2023-05-13T01:52:40.460Z,60.50
2023-05-13T01:55:07.582Z,60.45
2023-05-13T01:57:34.261Z,60.12
2023-05-13T02:00:00.878Z,60.03
2023-05-13T02:02:27.434Z,59.82
2023-05-13T02:04:55.478Z,59.06
2023-05-13T02:07:22.625Z,60.23
2023-05-13T02:09:50.162Z,62.90
2023-05-13T02:12:16.682Z,66.25
2023-05-13T02:14:43.256Z,66.11
2023-05-13T02:17:15.307Z,65.25
2023-05-13T02:19:42.175Z,64.38
2023-05-13T02:22:08.793Z,63.46
2023-05-13T02:24:36.172Z,62.77
2023-05-13T02:27:03.118Z,62.64
2023-05-13T02:29:29.770Z,62.26
2023-05-13T02:31:56.420Z,61.91
2023-05-13T02:34:23.093Z,61.65
2023-05-13T02:36:49.722Z,61.35
2023-05-13T02:39:16.359Z,60.95
2023-05-13T02:41:44.420Z,60.32
2023-05-13T02:44:11.408Z,59.86
2023-05-13T02:46:37.991Z,58.30
2023-05-13T02:49:04.881Z,57.97
2023-05-13T02:51:32.603Z,59.29
2023-05-13T02:53:59.158Z,60.61
2023-05-13T02:56:26.217Z,64.28
2023-05-13T02:58:52.798Z,65.86
2023-05-13T03:01:19.442Z,64.33
2023-05-13T03:03:46.278Z,63.03
2023-05-13T03:06:12.857Z,60.79
2023-05-13T03:08:39.389Z,59.78
2023-05-13T03:11:06.060Z,58.36
2023-05-13T03:13:32.686Z,58.94
2023-05-13T03:15:59.182Z,61.43
2023-05-13T03:18:25.948Z,64.71
2023-05-13T03:20:53.439Z,64.91
2023-05-13T03:23:20.008Z,63.39
2023-05-13T03:25:47.302Z,62.58
2023-05-13T03:28:13.938Z,61.75
2023-05-13T03:30:43.473Z,61.12
2023-05-13T03:33:14.012Z,60.55
2023-05-13T03:35:40.749Z,60.11
2023-05-13T03:38:07.642Z,58.65
2023-05-13T03:40:35.965Z,57.90
2023-05-13T03:43:02.469Z,59.07
2023-05-13T03:45:29.291Z,60.40
2023-05-13T03:47:58.380Z,64.12
2023-05-13T03:50:25.238Z,65.92
2023-05-13T03:52:51.992Z,64.84
2023-05-13T03:55:18.866Z,62.96
2023-05-13T03:57:48.458Z,61.74
2023-05-13T04:00:16.759Z,61.85
2023-05-13T04:02:43.773Z,61.32
2023-05-13T04:05:11.615Z,60.10
2023-05-13T04:07:38.197Z,57.99
2023-05-13T04:10:05.416Z,58.64
2023-05-13T04:12:33.340Z,58.90
2023-05-13T04:15:00.642Z,60.32
2023-05-13T04:17:27.766Z,64.07
2023-05-13T04:19:54.932Z,64.15
2023-05-13T04:22:21.837Z,62.39
2023-05-13T04:24:52.016Z,60.42
2023-05-13T04:27:18.747Z,56.92
2023-05-13T04:29:45.763Z,57.28
2023-05-13T04:32:16.166Z,59.52
2023-05-13T04:34:43.381Z,61.31
2023-05-13T04:37:09.956Z,63.55
2023-05-13T04:39:36.464Z,64.39
2023-05-13T04:42:03.136Z,62.01
2023-05-13T04:44:29.903Z,59.95
2023-05-13T04:46:56.396Z,56.84
2023-05-13T04:49:23.076Z,56.60
2023-05-13T04:51:50.381Z,56.73
2023-05-13T04:54:18.274Z,56.43
2023-05-13T04:56:45.013Z,57.99
2023-05-13T04:59:11.616Z,57.99
2023-05-13T05:01:38.698Z,58.48
2023-05-13T05:04:06.240Z,58.44
2023-05-13T05:06:34.082Z,58.10
2023-05-13T05:09:01.168Z,58.66
2023-05-13T05:11:27.746Z,59.33
2023-05-13T05:13:54.324Z,60.21
2023-05-13T05:16:20.982Z,60.24
2023-05-13T05:18:48.147Z,60.49
2023-05-13T05:21:18.054Z,61.37
2023-05-13T05:23:44.576Z,62.19
2023-05-13T05:26:12.366Z,59.90
2023-05-13T05:28:43.191Z,55.23
2023-05-13T05:31:10.108Z,53.13
2023-05-13T05:33:37.516Z,52.35
2023-05-13T05:36:06.737Z,53.58
2023-05-13T05:38:34.417Z,53.96
2023-05-13T05:41:01.214Z,54.32
2023-05-13T05:43:28.004Z,53.47
2023-05-13T05:45:54.572Z,54.36
2023-05-13T05:48:22.022Z,54.40
2023-05-13T05:50:49.306Z,54.20
2023-05-13T05:53:22.457Z,51.25
2023-05-13T05:55:51.075Z,50.56
2023-05-13T05:58:18.927Z,51.18
2023-05-13T06:00:45.713Z,52.17
2023-05-13T06:03:12.424Z,52.70
2023-05-13T06:05:39.282Z,51.74
2023-05-13T06:08:05.862Z,52.07
2023-05-13T06:10:32.424Z,51.50
2023-05-13T06:12:59.022Z,52.30
2023-05-13T06:15:25.713Z,51.62
2023-05-13T06:17:52.316Z,51.93
2023-05-13T06:20:19.105Z,49.06
2023-05-13T06:22:45.835Z,49.65
2023-05-13T06:25:12.425Z,49.88
2023-05-13T06:27:40.677Z,48.52
2023-05-13T06:30:07.752Z,49.42
2023-05-13T06:32:34.428Z,50.23
2023-05-13T06:35:01.003Z,47.35
2023-05-13T06:37:28.044Z,46.04
2023-05-13T06:39:54.791Z,47.73
2023-05-13T06:42:21.526Z,47.41
2023-05-13T06:44:55.332Z,47.47
2023-05-13T06:47:27.142Z,47.06
2023-05-13T06:49:53.702Z,47.30
2023-05-13T06:52:20.282Z,45.05
2023-05-13T06:54:47.022Z,41.22
2023-05-13T06:57:13.624Z,36.61
2023-05-13T06:59:40.150Z,34.84
2023-05-13T07:02:09.686Z,31.91
2023-05-13T07:04:37.036Z,28.87
2023-05-13T07:07:03.668Z,24.42
2023-05-13T07:09:30.285Z,23.03
2023-05-13T07:11:56.972Z,22.99
2023-05-13T07:14:25.300Z,21.81
2023-05-13T07:16:51.911Z,21.33
2023-05-13T07:19:18.633Z,20.06
2023-05-13T07:21:45.264Z,17.23
2023-05-13T07:24:11.903Z,16.09
2023-05-13T07:26:39.130Z,17.00
2023-05-13T07:29:06.180Z,16.23
2023-05-13T07:31:32.824Z,15.13
2023-05-13T07:33:59.650Z,16.02
2023-05-13T07:36:26.492Z,16.30
2023-05-13T07:38:53.534Z,15.00
2023-05-13T07:41:20.320Z,13.80
2023-05-13T07:43:47.083Z,14.74
2023-05-13T07:46:13.712Z,12.76
2023-05-13T07:48:40.203Z,12.20
2023-05-13T07:51:07.002Z,11.69
2023-05-13T07:53:33.848Z,12.62
2023-05-13T07:56:00.707Z,13.79
2023-05-13T07:58:27.225Z,11.39
2023-05-13T08:00:53.920Z,11.18
2023-05-13T08:03:20.536Z,12.35
2023-05-13T08:05:48.092Z,12.33
2023-05-13T08:08:14.744Z,11.35
2023-05-13T08:10:41.279Z,11.13
2023-05-13T08:13:07.864Z,11.07
2023-05-13T08:15:34.420Z,10.99
2023-05-13T08:18:01.092Z,11.44
2023-05-13T08:20:30.011Z,10.85
2023-05-13T08:22:58.197Z,11.00
2023-05-13T08:25:25.290Z,11.90
2023-05-13T08:27:51.967Z,12.53
2023-05-13T08:30:18.549Z,12.08
2023-05-13T08:32:45.497Z,12.18
2023-05-13T08:35:12.134Z,12.84
2023-05-13T08:37:38.673Z,13.28
2023-05-13T08:40:08.328Z,13.17
2023-05-13T08:42:38.338Z,12.83
2023-05-13T08:45:05.755Z,13.43
2023-05-13T08:47:55.706Z,12.96
2023-05-13T08:50:22.736Z,12.35
2023-05-13T08:52:53.972Z,10.94
2023-05-13T08:55:21.516Z,10.88
2023-05-13T08:57:48.243Z,11.09
2023-05-13T09:00:15.085Z,11.64
2023-05-13T09:02:41.964Z,11.77
2023-05-13T09:05:10.169Z,12.30
2023-05-13T09:07:38.085Z,13.52
2023-05-13T09:10:06.201Z,13.72
2023-05-13T09:12:41.944Z,13.47
2023-05-13T09:15:09.879Z,14.08
2023-05-13T09:17:42.522Z,15.18
2023-05-13T09:20:11.188Z,15.03
2023-05-13T09:22:52.951Z,15.71
2023-05-13T09:25:24.106Z,16.94
2023-05-13T09:27:57.758Z,17.43
2023-05-13T09:30:29.272Z,17.63
2023-05-13T09:33:11.053Z,18.11
2023-05-13T09:35:43.311Z,18.78
2023-05-13T09:38:17.824Z,19.05
2023-05-13T09:40:58.754Z,19.66
2023-05-13T09:43:30.770Z,20.34
2023-05-13T09:46:01.282Z,20.76
2023-05-13T09:48:29.835Z,21.25
2023-05-13T09:50:58.267Z,21.88
2023-05-13T09:53:28.626Z,22.33
2023-05-13T09:55:57.707Z,21.70
2023-05-13T09:58:28.131Z,19.41
2023-05-13T10:00:55.512Z,17.32
2023-05-13T10:03:22.508Z,15.72
2023-05-13T10:05:50.110Z,15.64
2023-05-13T10:08:18.264Z,16.22
2023-05-13T10:10:47.014Z,16.16
2023-05-13T10:13:19.332Z,16.73
2023-05-13T10:15:51.562Z,16.45
2023-05-13T10:18:20.142Z,14.49
2023-05-13T10:20:47.806Z,14.31
2023-05-13T10:23:14.472Z,14.66
2023-05-13T10:25:42.783Z,14.10
2023-05-13T10:28:10.645Z,14.06
2023-05-13T10:30:38.876Z,13.90
2023-05-13T10:33:05.845Z,15.31
2023-05-13T10:35:38.592Z,16.20
2023-05-13T10:38:15.625Z,16.12
2023-05-13T10:40:54.051Z,17.08
2023-05-13T10:43:22.145Z,17.96
2023-05-13T10:45:50.983Z,18.98
2023-05-13T10:48:18.866Z,19.69
2023-05-13T10:50:57.093Z,20.14
2023-05-13T10:53:26.020Z,18.76
2023-05-13T10:55:57.263Z,17.97
2023-05-13T10:58:39.774Z,17.87
2023-05-13T11:01:17.904Z,17.98
2023-05-13T11:03:56.811Z,18.64
2023-05-13T11:06:29.312Z,19.78
2023-05-13T11:08:56.344Z,21.49
2023-05-13T11:11:23.002Z,21.53
2023-05-13T11:13:54.835Z,21.34
2023-05-13T11:16:23.158Z,20.69
2023-05-13T11:18:51.783Z,20.84
2023-05-13T11:21:30.105Z,21.47
2023-05-13T11:23:59.096Z,22.14
2023-05-13T11:26:25.675Z,20.83
2023-05-13T11:28:59.788Z,20.41
2023-05-13T11:31:28.416Z,21.54
2023-05-13T11:34:15.050Z,22.62
2023-05-13T11:36:44.768Z,22.10
2023-05-13T11:39:20.261Z,21.77
2023-05-13T11:41:51.520Z,22.86
2023-05-13T11:44:20.820Z,23.22
2023-05-13T11:46:58.730Z,23.61
2023-05-13T11:49:42.818Z,22.80
2023-05-13T11:52:13.347Z,21.72
2023-05-13T11:54:44.342Z,21.52
2023-05-13T11:57:17.192Z,21.68
2023-05-13T12:00:06.863Z,19.75
2023-05-13T12:02:37.453Z,18.18
2023-05-13T12:05:06.310Z,17.56
2023-05-13T12:07:34.179Z,17.14
2023-05-13T12:10:03.853Z,17.61
2023-05-13T12:12:32.922Z,17.90
2023-05-13T12:15:01.901Z,18.74
2023-05-13T12:17:29.062Z,17.87
2023-05-13T12:20:12.862Z,18.59
2023-05-13T12:22:42.510Z,19.47
2023-05-13T12:25:27.652Z,20.35
2023-05-13T12:28:21.707Z,20.79
2023-05-13T12:30:56.872Z,22.37
2023-05-13T12:33:31.408Z,22.27
2023-05-13T12:36:35.891Z,21.45
2023-05-13T12:39:10.863Z,20.18
2023-05-13T12:41:39.312Z,20.21
2023-05-13T12:44:15.136Z,20.83
2023-05-13T12:46:52.850Z,18.94
2023-05-13T12:49:19.835Z,18.85
2023-05-13T12:51:46.479Z,19.04
2023-05-13T12:54:13.226Z,19.06
2023-05-13T12:56:42.773Z,18.05
2023-05-13T12:59:09.251Z,18.21
2023-05-13T13:01:37.239Z,17.51
2023-05-13T13:04:04.059Z,17.62
2023-05-13T13:06:32.372Z,18.61
2023-05-13T13:08:59.054Z,18.06
2023-05-13T13:11:25.667Z,18.95
2023-05-13T13:13:52.172Z,19.42
2023-05-13T13:16:19.028Z,19.15
2023-05-13T13:18:45.769Z,19.34
2023-05-13T13:21:12.549Z,19.42
2023-05-13T13:23:39.387Z,20.23
2023-05-13T13:26:05.989Z,21.17
2023-05-13T13:28:32.676Z,21.80
2023-05-13T13:30:59.953Z,23.32
2023-05-13T13:33:26.659Z,24.89
2023-05-13T13:35:53.424Z,25.92
2023-05-13T13:38:19.976Z,25.59
2023-05-13T13:40:46.633Z,26.13
2023-05-13T13:43:13.245Z,25.62
2023-05-13T13:45:40.058Z,27.39
2023-05-13T13:48:06.988Z,26.92
2023-05-13T13:50:34.004Z,26.02
2023-05-13T13:53:00.590Z,25.99
2023-05-13T13:55:27.112Z,26.19
2023-05-13T13:57:53.743Z,26.95
2023-05-13T14:00:20.806Z,27.63
2023-05-13T14:02:48.354Z,25.52
2023-05-13T14:05:15.954Z,26.29
2023-05-13T14:07:42.637Z,26.05
2023-05-13T14:10:09.923Z,25.95
2023-05-13T14:12:37.322Z,25.87
2023-05-13T14:15:04.245Z,25.94
2023-05-13T14:17:30.953Z,25.52
2023-05-13T14:19:57.558Z,25.46
2023-05-13T14:22:24.521Z,26.04
2023-05-13T14:24:54.098Z,25.69
2023-05-13T14:27:21.621Z,25.97
2023-05-13T14:29:49.090Z,25.66
2023-05-13T14:32:16.215Z,31.83
2023-05-13T14:34:43.114Z,56.99
2023-05-13T14:37:09.778Z,62.46
2023-05-13T14:39:36.926Z,68.67
2023-05-13T14:42:03.988Z,71.11
2023-05-13T14:44:30.628Z,69.75
2023-05-13T14:46:57.291Z,70.97
2023-05-13T14:49:23.997Z,72.01
2023-05-13T14:51:50.730Z,71.62
2023-05-13T14:54:17.861Z,70.45
2023-05-13T14:56:45.053Z,71.51
2023-05-13T14:59:11.824Z,69.30
2023-05-13T15:01:38.705Z,68.90
2023-05-13T15:04:05.866Z,68.67
2023-05-13T15:06:32.883Z,70.35
2023-05-13T15:08:59.596Z,70.78
2023-05-13T15:11:30.558Z,70.02
2023-05-13T15:13:57.122Z,68.49
2023-05-13T15:16:23.846Z,66.83
2023-05-13T15:18:50.772Z,65.18
2023-05-13T15:21:17.854Z,63.16
2023-05-13T15:23:44.652Z,61.23
2023-05-13T15:26:11.407Z,61.29
2023-05-13T15:28:37.987Z,59.80
2023-05-13T15:31:05.700Z,59.01
2023-05-13T15:33:35.760Z,60.01
2023-05-13T15:36:02.466Z,55.89
2023-05-13T15:38:29.018Z,51.25
2023-05-13T15:40:55.538Z,50.06
2023-05-13T15:43:22.180Z,50.33
2023-05-13T15:45:50.052Z,48.23
2023-05-13T15:48:17.479Z,48.69
2023-05-13T15:50:44.631Z,49.58
2023-05-13T15:53:11.211Z,47.63
2023-05-13T15:55:39.368Z,48.32
2023-05-13T15:58:06.881Z,47.11
2023-05-13T16:00:33.664Z,43.43
2023-05-13T16:03:00.700Z,44.29
2023-05-13T16:05:27.392Z,44.82
2023-05-13T16:07:54.269Z,43.42
2023-05-13T16:10:21.023Z,42.88
2023-05-13T16:12:47.638Z,41.93
2023-05-13T16:15:14.264Z,39.96
2023-05-13T16:17:40.960Z,40.86
2023-05-13T16:20:10.134Z,41.10
2023-05-13T16:22:38.246Z,40.05
2023-05-13T16:25:09.992Z,40.63
2023-05-13T16:27:37.965Z,38.88
2023-05-13T16:30:07.220Z,37.11
2023-05-13T16:32:34.925Z,37.89
2023-05-13T16:35:02.123Z,37.40
2023-05-13T16:37:29.088Z,36.93
2023-05-13T16:39:55.727Z,35.49
2023-05-13T16:42:22.556Z,35.29
2023-05-13T16:44:49.305Z,35.10
2023-05-13T16:47:15.917Z,34.90
2023-05-13T16:49:42.709Z,33.57
2023-05-13T16:52:09.337Z,33.63
2023-05-13T16:54:36.013Z,34.39
2023-05-13T16:57:02.725Z,35.68
2023-05-13T16:59:29.378Z,36.26
2023-05-13T17:01:56.139Z,36.63
2023-05-13T17:04:22.837Z,36.88
2023-05-13T17:06:49.566Z,37.93
2023-05-13T17:09:16.412Z,38.48
2023-05-13T17:11:43.342Z,38.98
2023-05-13T17:14:10.109Z,39.39
2023-05-13T17:16:37.090Z,39.93
2023-05-13T17:19:03.920Z,40.34
2023-05-13T17:21:30.503Z,40.72
2023-05-13T17:23:57.001Z,40.96
2023-05-13T17:26:23.570Z,41.39
2023-05-13T17:28:50.275Z,41.66
2023-05-13T17:31:16.923Z,42.03
2023-05-13T17:33:43.887Z,42.22
2023-05-13T17:36:10.950Z,42.34
2023-05-13T17:38:38.138Z,42.76
2023-05-13T17:41:04.987Z,43.57
2023-05-13T17:43:31.554Z,45.88
2023-05-13T17:45:58.502Z,46.60
2023-05-13T17:48:26.861Z,47.54
2023-05-13T17:50:53.784Z,47.36
2023-05-13T17:53:20.921Z,47.75
2023-05-13T17:55:48.634Z,48.36
2023-05-13T17:58:18.216Z,49.39
2023-05-13T18:00:44.823Z,49.50
2023-05-13T18:03:11.418Z,50.04
2023-05-13T18:05:38.141Z,50.47
2023-05-13T18:08:04.977Z,50.51
2023-05-13T18:10:31.527Z,51.28
2023-05-13T18:12:58.091Z,51.35
2023-05-13T18:15:24.672Z,51.41
2023-05-13T18:17:51.282Z,51.60
2023-05-13T18:20:18.562Z,52.53
2023-05-13T18:22:45.270Z,52.88
2023-05-13T18:25:11.992Z,52.58
2023-05-13T18:27:38.533Z,54.77
2023-05-13T18:30:06.642Z,53.94
2023-05-13T18:32:33.154Z,55.51
2023-05-13T18:34:59.944Z,56.07
2023-05-13T18:37:26.677Z,56.17
2023-05-13T18:39:53.371Z,56.26
2023-05-13T18:42:19.995Z,57.71
2023-05-13T18:44:46.613Z,58.64
2023-05-13T18:47:13.223Z,58.81
2023-05-13T18:49:40.066Z,59.42
2023-05-13T18:52:06.969Z,60.07
2023-05-13T18:54:33.606Z,62.38
2023-05-13T18:57:00.446Z,63.32
2023-05-13T18:59:28.163Z,62.27
2023-05-13T19:01:54.998Z,59.40
2023-05-13T19:04:22.184Z,57.17
2023-05-13T19:06:48.925Z,57.02
2023-05-13T19:09:16.520Z,57.60
2023-05-13T19:11:44.005Z,58.58
2023-05-13T19:14:10.550Z,59.87
2023-05-13T19:16:37.114Z,60.28
2023-05-13T19:19:03.728Z,60.66
2023-05-13T19:21:30.851Z,61.19
2023-05-13T19:23:58.528Z,61.65
2023-05-13T19:26:25.293Z,64.13
2023-05-13T19:28:52.179Z,65.52
2023-05-13T19:31:18.838Z,64.42
2023-05-13T19:33:46.372Z,63.13
2023-05-13T19:36:13.371Z,62.09
2023-05-13T19:38:40.003Z,61.10
2023-05-13T19:41:06.616Z,58.72
2023-05-13T19:43:33.183Z,58.75
2023-05-13T19:45:59.905Z,59.00
2023-05-13T19:48:28.353Z,60.86
2023-05-13T19:50:57.814Z,62.62
2023-05-13T19:53:24.774Z,64.31
2023-05-13T19:55:52.544Z,63.43
2023-05-13T19:58:19.096Z,62.34
2023-05-13T20:00:46.263Z,61.05
2023-05-13T20:03:13.513Z,58.79
2023-05-13T20:05:43.589Z,57.80
2023-05-13T20:08:10.087Z,58.65
2023-05-13T20:10:36.849Z,59.55
2023-05-13T20:13:07.241Z,61.37
2023-05-13T20:15:33.950Z,64.41
2023-05-13T20:18:00.811Z,64.99
2023-05-13T20:20:27.578Z,63.85
2023-05-13T20:22:57.150Z,63.01
2023-05-13T20:25:23.935Z,62.35
2023-05-13T20:27:51.357Z,61.47
2023-05-13T20:30:18.373Z,60.53
2023-05-13T20:32:45.107Z,60.40
2023-05-13T20:35:11.900Z,58.76
2023-05-13T20:37:38.729Z,58.46
2023-05-13T20:40:07.999Z,59.69
2023-05-13T20:42:34.781Z,62.73
2023-05-13T20:45:01.640Z,64.69
2023-05-13T20:47:28.578Z,63.26
2023-05-13T20:49:55.369Z,62.33
2023-05-13T20:52:22.281Z,61.57
2023-05-13T20:54:48.906Z,61.07
2023-05-13T20:57:15.914Z,60.24
2023-05-13T20:59:42.701Z,58.49
2023-05-13T21:02:09.482Z,57.99
2023-05-13T21:04:36.118Z,59.59
2023-05-13T21:07:04.966Z,62.61
2023-05-13T21:09:31.665Z,64.76
2023-05-13T21:11:58.356Z,64.13
2023-05-13T21:14:25.121Z,63.14
2023-05-13T21:16:51.814Z,62.38
2023-05-13T21:19:27.504Z,61.97
2023-05-13T21:21:54.065Z,61.59
2023-05-13T21:24:20.736Z,60.92
2023-05-13T21:26:49.143Z,60.40
2023-05-13T21:29:17.369Z,60.36
2023-05-13T21:31:45.955Z,58.98
2023-05-13T21:34:13.000Z,58.49
2023-05-13T21:36:39.650Z,59.72
2023-05-13T21:39:07.666Z,63.17
2023-05-13T21:41:34.407Z,65.19
2023-05-13T21:44:01.107Z,64.45
2023-05-13T21:46:28.040Z,63.32
2023-05-13T21:48:54.706Z,62.81
2023-05-13T21:51:22.265Z,61.84
2023-05-13T21:53:48.954Z,61.47
2023-05-13T21:56:15.756Z,60.90
2023-05-13T21:58:42.349Z,60.78
2023-05-13T22:01:09.162Z,60.52
2023-05-13T22:03:35.913Z,60.14
2023-05-13T22:06:05.310Z,58.95
2023-05-13T22:08:33.001Z,58.46
2023-05-13T22:11:01.454Z,59.71
2023-05-13T22:13:28.232Z,62.92
2023-05-13T22:15:57.396Z,64.69
2023-05-13T22:18:24.512Z,64.06
2023-05-13T22:20:51.473Z,62.70
2023-05-13T22:23:18.169Z,62.08
2023-05-13T22:25:45.174Z,61.77
2023-05-13T22:28:11.799Z,61.65
2023-05-13T22:30:40.108Z,61.50
2023-05-13T22:33:07.118Z,61.30
2023-05-13T22:35:36.609Z,61.46
2023-05-13T22:38:05.801Z,61.25
2023-05-13T22:40:32.606Z,60.74
2023-05-13T22:42:59.324Z,60.42
2023-05-13T22:45:26.063Z,60.24
2023-05-13T22:47:52.720Z,60.26
2023-05-13T22:50:19.596Z,60.17
2023-05-13T22:52:46.608Z,60.61
2023-05-13T22:55:13.319Z,60.43
2023-05-13T22:57:39.965Z,60.37
2023-05-13T23:00:07.238Z,60.32
2023-05-13T23:02:33.776Z,60.94
2023-05-13T23:05:00.433Z,61.04
2023-05-13T23:07:26.974Z,61.08
2023-05-13T23:09:53.496Z,60.71
2023-05-13T23:12:20.057Z,60.30
2023-05-13T23:14:47.815Z,60.23
2023-05-13T23:17:14.459Z,60.29
2023-05-13T23:19:41.118Z,60.25
2023-05-13T23:22:07.680Z,60.18
2023-05-13T23:24:34.194Z,60.15
2023-05-13T23:27:00.769Z,59.93
2023-05-13T23:29:27.647Z,59.82
2023-05-13T23:31:55.687Z,58.85
2023-05-13T23:34:22.285Z,59.18
2023-05-13T23:36:48.867Z,60.49
2023-05-13T23:39:15.387Z,64.09
2023-05-13T23:41:42.756Z,65.87
2023-05-13T23:44:12.024Z,66.24
2023-05-13T23:46:38.552Z,66.23
2023-05-13T23:49:05.121Z,65.15
2023-05-13T23:51:32.359Z,64.28
2023-05-13T23:53:59.800Z,63.43
2023-05-13T23:56:26.462Z,62.85
2023-05-13T23:58:53.068Z,62.51
